ENSK

Stokmarknes Skagen Airport

Hadsel, Norway
METAR ENSK 231250Z 19014KT 9999 VCSH FEW020 BKN035 14/09 Q1009
Observed Flight Rules
Jul-23 @ 12:50 UTC (16 minutes ago) Visual Flight Rules
Wind Visibility Clouds
190° at 14 knots 10,000+ meters
  • Few at 2,000' AGL
  • Broken at 3,500' AGL
Temperatures Readings
Current 14°C / 57°F
Dewpoint 9°C / 48°F
Humidity 72%
Altimeter 29.79" Hg
Pressure 1009 hPa
Elevation 3
METAR ENSK 231250Z 19014KT 9999 VCSH FEW020 BKN035 14/09 Q1009
Observed Flight Rules
Jul-23 @ 12:50 UTC
(16 minutes ago)
VFR
Wind Visibility
190° at 14 knots 10,000+ meters
Clouds
  • Few at 2,000' AGL
  • Broken at 3,500' AGL
Temperature Dewpoint
14°C / 57°F 9°C / 48°F
Humidity Altimeter Pressure
72% 29.79" Hg 1009 hPa